ELLX/LUX METAR and TAF weather

Enter ICAO airport designator
Station Type Date Time Source
ELLX METAR 2021/08/05 03:20 UTC NOAA

ELLX 050320Z VRB02KT CAVOK 14/13 Q1011 NOSIG


Station Type Date Time Source
ELLX Decoded METAR 2021/08/05 03:20 UTC NOAA

Luxembourg / Luxembourg, Luxembourg (ELLX) 49-37N 006-13E 379M
Aug 04, 2021 - 11:20 PM EDT / 2021.08.05 0320 UTC
Wind: Variable at 2 MPH (2 KT):0
Visibility: greater than 7 mile(s):0
Temperature: 57 F (14 C)
Dew Point: 55 F (13 C)
Relative Humidity: 93%
Pressure (altimeter): 29.85 in. Hg (1011 hPa)
ob: ELLX 050320Z VRB02KT CAVOK 14/13 Q1011 NOSIG
cycle: 3

Station Type Date Time Source
ELLX TAF 2021/08/04 18:27 UTC NOAA

TAF ELLX 041700Z 0418/0524 22004KT 9999 SCT035
TEMPO 0418/0422 FEW035TCU PROB30
TEMPO 0418/0503 SHRA SCT030TCU PROB30
TEMPO 0423/0508 4000 BR BKN006
BECMG 0509/0512 22010KT

Example: see airport list